createdAt,value
2023-12-18T00:00:37.726Z,198.18
2023-12-18T00:03:07.329Z,314.63
2023-12-18T00:05:38.658Z,372.40
2023-12-18T00:08:09.770Z,294.40
2023-12-18T00:10:38.737Z,414.50
2023-12-18T00:13:08.087Z,272.83
2023-12-18T00:15:37.888Z,356.10
2023-12-18T00:18:07.301Z,317.70
2023-12-18T00:20:35.608Z,365.85
2023-12-18T00:23:04.144Z,310.60
2023-12-18T00:25:32.268Z,281.65
2023-12-18T00:28:00.752Z,232.80
2023-12-18T00:30:29.145Z,460.83
2023-12-18T00:32:59.354Z,282.90
2023-12-18T00:35:28.239Z,411.73
2023-12-18T00:37:56.418Z,308.80
2023-12-18T00:40:26.809Z,264.00
2023-12-18T00:42:55.228Z,257.15
2023-12-18T00:45:23.554Z,265.20
2023-12-18T00:47:52.831Z,221.43
2023-12-18T00:50:23.310Z,286.90
2023-12-18T00:52:51.917Z,211.02
2023-12-18T00:55:20.393Z,350.70
2023-12-18T00:57:53.478Z,254.15
2023-12-18T01:00:22.617Z,337.08
2023-12-18T01:02:50.982Z,330.63
2023-12-18T01:05:19.577Z,273.60
2023-12-18T01:07:49.615Z,291.77
2023-12-18T01:10:18.562Z,314.42
2023-12-18T01:12:50.014Z,296.75
2023-12-18T01:15:19.099Z,349.73
2023-12-18T01:17:47.710Z,357.17
2023-12-18T01:20:16.653Z,292.70
2023-12-18T01:22:46.990Z,352.92
2023-12-18T01:25:22.393Z,199.45
2023-12-18T01:27:51.868Z,287.02
2023-12-18T01:30:20.617Z,220.35
2023-12-18T01:32:49.167Z,342.70
2023-12-18T01:35:17.963Z,217.80
2023-12-18T01:37:47.810Z,317.63
2023-12-18T01:40:16.616Z,341.13
2023-12-18T01:42:47.786Z,166.45
2023-12-18T01:45:16.290Z,412.60
2023-12-18T01:47:44.906Z,273.42
2023-12-18T01:50:14.969Z,336.80
2023-12-18T01:52:43.810Z,347.48
2023-12-18T01:55:14.129Z,331.35
2023-12-18T01:57:43.335Z,341.85
2023-12-18T02:00:15.666Z,334.05
2023-12-18T02:02:46.069Z,279.77
2023-12-18T02:05:16.838Z,309.75
2023-12-18T02:07:45.228Z,391.27
2023-12-18T02:10:13.958Z,244.02
2023-12-18T02:12:42.179Z,331.80
2023-12-18T02:15:12.866Z,375.30
2023-12-18T02:17:41.295Z,205.23
2023-12-18T02:20:11.512Z,205.38
2023-12-18T02:22:52.926Z,152.13
2023-12-18T02:25:21.699Z,343.65
2023-12-18T02:27:51.249Z,399.77
2023-12-18T02:30:24.800Z,270.67
2023-12-18T02:32:53.650Z,364.95
2023-12-18T02:35:22.087Z,357.73
2023-12-18T02:37:51.566Z,609.20
2023-12-18T02:40:20.478Z,295.90
2023-12-18T02:42:49.192Z,452.38
2023-12-18T02:45:17.386Z,376.25
2023-12-18T02:47:46.649Z,652.15
2023-12-18T02:50:16.084Z,264.60
2023-12-18T02:52:44.786Z,423.73
2023-12-18T02:55:15.217Z,469.70
2023-12-18T02:57:43.960Z,461.02
2023-12-18T03:00:12.953Z,438.00
2023-12-18T03:02:42.503Z,311.55
2023-12-18T03:05:11.090Z,411.98
2023-12-18T03:07:40.718Z,343.33
2023-12-18T03:10:10.322Z,293.80
2023-12-18T03:12:40.026Z,332.02
2023-12-18T03:15:10.605Z,324.35
2023-12-18T03:17:38.730Z,201.02
2023-12-18T03:20:09.125Z,293.55
2023-12-18T03:22:37.349Z,434.85
2023-12-18T03:25:06.293Z,282.33
2023-12-18T03:27:34.686Z,482.10
2023-12-18T03:30:05.323Z,261.50
2023-12-18T03:32:33.685Z,337.85
2023-12-18T03:35:02.083Z,368.45
2023-12-18T03:37:30.636Z,335.88
2023-12-18T03:40:00.587Z,412.67
2023-12-18T03:42:29.226Z,268.33
2023-12-18T03:44:57.880Z,412.02
2023-12-18T03:47:28.153Z,370.52
2023-12-18T03:49:56.419Z,195.20
2023-12-18T03:52:25.846Z,317.20
2023-12-18T03:54:55.502Z,216.10
2023-12-18T03:57:25.852Z,322.40
2023-12-18T03:59:54.351Z,255.60
2023-12-18T04:02:22.626Z,390.60
2023-12-18T04:04:53.997Z,361.30
2023-12-18T04:07:22.672Z,315.40
2023-12-18T04:09:50.943Z,358.55
2023-12-18T04:12:19.226Z,339.92
2023-12-18T04:14:47.834Z,476.38
2023-12-18T04:17:16.245Z,320.85
2023-12-18T04:19:44.982Z,266.17
2023-12-18T04:22:15.062Z,345.52
2023-12-18T04:24:43.772Z,213.98
2023-12-18T04:27:12.489Z,279.10
2023-12-18T04:29:41.289Z,137.38
2023-12-18T04:32:09.646Z,125.13
2023-12-18T04:34:38.070Z,302.52
2023-12-18T04:37:09.641Z,464.98
2023-12-18T04:39:41.161Z,202.40
2023-12-18T04:42:10.076Z,163.43
2023-12-18T04:44:38.646Z,343.25
2023-12-18T04:47:07.212Z,466.02
2023-12-18T04:49:35.680Z,274.08
2023-12-18T04:52:04.116Z,216.70
2023-12-18T04:54:33.381Z,223.35
2023-12-18T04:57:03.652Z,323.40
2023-12-18T04:59:31.855Z,346.15
2023-12-18T05:02:00.307Z,172.00
2023-12-18T05:04:30.187Z,447.92
2023-12-18T05:07:00.078Z,357.50
2023-12-18T05:09:28.680Z,537.80
2023-12-18T05:11:57.025Z,392.58
2023-12-18T05:14:27.189Z,422.48
2023-12-18T05:16:55.520Z,330.10
2023-12-18T05:19:24.069Z,236.77
2023-12-18T05:21:52.964Z,529.65
2023-12-18T05:24:21.575Z,400.95
2023-12-18T05:26:49.992Z,446.42
2023-12-18T05:29:18.584Z,421.98
2023-12-18T05:31:48.798Z,465.55
2023-12-18T05:34:17.116Z,421.45
2023-12-18T05:36:45.765Z,476.73
2023-12-18T05:39:14.610Z,349.65
2023-12-18T05:41:44.543Z,311.77
2023-12-18T05:44:13.084Z,464.10
2023-12-18T05:46:41.782Z,236.25
2023-12-18T05:49:12.141Z,453.50
2023-12-18T05:51:40.949Z,287.33
2023-12-18T05:54:09.315Z,479.58
2023-12-18T05:56:37.978Z,468.17
2023-12-18T05:59:06.432Z,329.08
2023-12-18T06:01:34.954Z,417.00
2023-12-18T06:04:03.736Z,407.30
2023-12-18T06:06:34.619Z,484.15
2023-12-18T06:09:04.017Z,470.65
2023-12-18T06:11:35.506Z,560.97
2023-12-18T06:14:04.076Z,440.83
2023-12-18T06:16:32.396Z,219.70
2023-12-18T06:19:01.326Z,456.67
2023-12-18T06:21:30.726Z,360.17
2023-12-18T06:24:02.390Z,451.42
2023-12-18T06:26:31.981Z,521.58
2023-12-18T06:29:00.060Z,483.23
2023-12-18T06:31:28.754Z,628.38
2023-12-18T06:33:57.435Z,495.70
2023-12-18T06:36:25.681Z,386.00
2023-12-18T06:38:53.908Z,445.15
2023-12-18T06:41:23.984Z,349.67
2023-12-18T06:43:52.555Z,399.13
2023-12-18T06:46:20.769Z,366.67
2023-12-18T06:48:49.352Z,320.85
2023-12-18T06:51:18.260Z,291.23
2023-12-18T06:53:47.224Z,293.17
2023-12-18T06:56:15.412Z,124.85
2023-12-18T06:58:45.320Z,358.15
2023-12-18T07:01:16.022Z,394.58
2023-12-18T07:03:44.421Z,257.92
2023-12-18T07:06:12.978Z,359.23
2023-12-18T07:08:42.009Z,469.23
2023-12-18T07:11:11.468Z,431.25
2023-12-18T07:13:40.022Z,439.70
2023-12-18T07:16:11.131Z,405.60
2023-12-18T07:18:43.997Z,215.85
2023-12-18T07:21:12.524Z,552.47
2023-12-18T07:23:42.896Z,517.67
2023-12-18T07:26:13.933Z,335.42
2023-12-18T07:28:42.669Z,503.00
2023-12-18T07:31:12.572Z,492.75
2023-12-18T07:33:41.307Z,284.23
2023-12-18T07:36:10.459Z,310.35
2023-12-18T07:38:38.844Z,312.25
2023-12-18T07:41:07.352Z,437.23
2023-12-18T07:43:35.645Z,358.00
2023-12-18T07:46:03.894Z,660.83
2023-12-18T07:48:34.901Z,490.00
2023-12-18T07:51:05.169Z,506.17
2023-12-18T07:53:34.097Z,242.88
2023-12-18T07:56:03.871Z,450.30
2023-12-18T07:58:32.432Z,321.02
2023-12-18T08:01:02.376Z,470.10
2023-12-18T08:03:30.712Z,462.63
2023-12-18T08:06:01.074Z,354.98
2023-12-18T08:08:30.110Z,335.10
2023-12-18T08:10:59.026Z,313.60
2023-12-18T08:13:28.836Z,317.55
2023-12-18T08:15:57.227Z,398.48
2023-12-18T08:18:25.804Z,274.98
2023-12-18T08:20:54.701Z,349.35
2023-12-18T08:23:24.964Z,370.85
2023-12-18T08:25:53.043Z,352.90
2023-12-18T08:28:21.481Z,509.55
2023-12-18T08:30:50.085Z,351.63
2023-12-18T08:33:19.856Z,397.92
2023-12-18T08:35:50.859Z,369.65
2023-12-18T08:38:19.191Z,175.40
2023-12-18T08:40:49.575Z,254.45
2023-12-18T08:43:18.493Z,295.30
2023-12-18T08:45:47.260Z,320.83
2023-12-18T08:48:17.139Z,158.82
2023-12-18T08:50:46.693Z,186.80
2023-12-18T08:53:15.741Z,329.55
2023-12-18T08:55:44.592Z,375.63
2023-12-18T08:58:14.958Z,219.63
2023-12-18T09:00:43.826Z,240.02
2023-12-18T09:03:12.542Z,198.82
2023-12-18T09:05:43.394Z,245.00
2023-12-18T09:08:15.208Z,193.02
2023-12-18T09:10:44.186Z,117.72
2023-12-18T09:13:14.151Z,160.80
2023-12-18T09:15:43.297Z,148.23
2023-12-18T09:18:12.007Z,135.63
2023-12-18T09:20:42.006Z,149.68
2023-12-18T09:23:10.627Z,130.82
2023-12-18T09:25:39.058Z,53.67
2023-12-18T09:28:07.942Z,182.25
2023-12-18T09:30:37.975Z,284.23
2023-12-18T09:33:07.131Z,208.38
2023-12-18T09:35:35.438Z,138.70
2023-12-18T09:38:04.239Z,153.50
2023-12-18T09:40:32.601Z,186.27
2023-12-18T09:43:02.779Z,140.27
2023-12-18T09:45:33.143Z,225.48
2023-12-18T09:48:03.002Z,223.52
2023-12-18T09:50:32.571Z,191.02
2023-12-18T09:53:05.677Z,287.38
2023-12-18T09:55:34.778Z,201.88
2023-12-18T09:58:04.244Z,137.35
2023-12-18T10:00:32.715Z,133.85
2023-12-18T10:03:04.342Z,144.90
2023-12-18T10:05:33.120Z,130.05
2023-12-18T10:08:02.999Z,153.35
2023-12-18T10:10:31.920Z,140.18
2023-12-18T10:13:04.553Z,113.53
2023-12-18T10:15:34.970Z,105.65
2023-12-18T10:18:05.537Z,129.38
2023-12-18T10:20:35.478Z,147.77
2023-12-18T10:23:04.632Z,138.02
2023-12-18T10:25:33.316Z,137.23
2023-12-18T10:28:02.095Z,147.90
2023-12-18T10:30:31.360Z,144.68
2023-12-18T10:33:02.039Z,169.85
2023-12-18T10:35:34.895Z,171.52
2023-12-18T10:38:04.425Z,172.50
2023-12-18T10:40:32.742Z,226.15
2023-12-18T10:43:13.495Z,182.98
2023-12-18T10:45:42.194Z,187.35
2023-12-18T10:48:11.861Z,166.85
2023-12-18T10:50:43.385Z,134.45
2023-12-18T10:53:15.186Z,153.82
2023-12-18T10:55:44.990Z,159.85
2023-12-18T10:58:15.113Z,125.07
2023-12-18T11:00:45.936Z,134.40
2023-12-18T11:03:15.455Z,143.45
2023-12-18T11:05:48.075Z,127.15
2023-12-18T11:08:16.426Z,122.45
2023-12-18T11:10:45.436Z,94.25
2023-12-18T11:13:22.552Z,96.47
2023-12-18T11:16:08.046Z,69.82
2023-12-18T11:18:50.094Z,63.08
2023-12-18T11:21:21.230Z,77.63
2023-12-18T11:24:01.454Z,81.18
2023-12-18T11:26:39.463Z,89.70
2023-12-18T11:29:35.459Z,72.38
2023-12-18T11:32:05.465Z,70.43
2023-12-18T11:34:34.804Z,72.75
2023-12-18T11:37:08.078Z,88.93
2023-12-18T11:39:42.024Z,66.38
2023-12-18T11:42:12.496Z,77.97
2023-12-18T11:44:41.739Z,73.85
2023-12-18T11:47:10.079Z,68.28
2023-12-18T11:49:39.020Z,76.97
2023-12-18T11:52:22.636Z,77.97
2023-12-18T11:54:50.998Z,67.90
2023-12-18T11:57:23.315Z,66.95
2023-12-18T11:59:52.450Z,74.78
2023-12-18T12:02:23.300Z,72.60
2023-12-18T12:04:53.621Z,69.32
2023-12-18T12:07:24.996Z,75.07
2023-12-18T12:10:03.892Z,60.58
2023-12-18T12:12:34.718Z,79.00
2023-12-18T12:15:03.471Z,79.20
2023-12-18T12:17:32.705Z,79.28
2023-12-18T12:20:01.353Z,87.88
2023-12-18T12:22:31.204Z,69.40
2023-12-18T12:24:59.774Z,78.90
2023-12-18T12:27:30.987Z,72.22
2023-12-18T12:29:59.976Z,68.30
2023-12-18T12:32:28.810Z,74.13
2023-12-18T12:34:58.655Z,67.38
2023-12-18T12:37:27.291Z,69.60
2023-12-18T12:40:00.637Z,74.80
2023-12-18T12:42:30.449Z,70.47
2023-12-18T12:45:00.198Z,77.82
2023-12-18T12:47:29.003Z,70.57
2023-12-18T12:50:03.724Z,72.57
2023-12-18T12:52:33.215Z,69.47
2023-12-18T12:55:02.766Z,68.78
2023-12-18T12:57:31.250Z,67.75
2023-12-18T13:00:01.161Z,64.50
2023-12-18T13:02:30.039Z,64.05
2023-12-18T13:04:59.184Z,62.75
2023-12-18T13:07:28.359Z,63.97
2023-12-18T13:09:57.746Z,59.65
2023-12-18T13:12:27.182Z,65.60
2023-12-18T13:14:55.376Z,62.45
2023-12-18T13:17:24.253Z,63.08
2023-12-18T13:19:52.801Z,67.63
2023-12-18T13:22:21.463Z,65.07
2023-12-18T13:24:50.011Z,73.80
2023-12-18T13:27:19.324Z,60.47
2023-12-18T13:29:49.737Z,66.68
2023-12-18T13:32:18.551Z,67.13
2023-12-18T13:34:46.959Z,72.18
2023-12-18T13:37:15.981Z,73.68
2023-12-18T13:39:44.701Z,67.28
2023-12-18T13:42:16.393Z,84.47
2023-12-18T13:44:44.894Z,99.78
2023-12-18T13:47:15.533Z,97.72
2023-12-18T13:49:46.424Z,71.40
2023-12-18T13:52:15.842Z,69.57
2023-12-18T13:54:46.660Z,67.85
2023-12-18T13:57:15.190Z,60.90
2023-12-18T13:59:44.735Z,66.10
2023-12-18T14:02:15.174Z,64.45
2023-12-18T14:04:44.690Z,64.60
2023-12-18T14:07:13.020Z,55.45
2023-12-18T14:09:42.224Z,55.90
2023-12-18T14:12:13.334Z,54.15
2023-12-18T14:14:42.115Z,55.70
2023-12-18T14:17:14.050Z,60.35
2023-12-18T14:19:42.342Z,59.45
2023-12-18T14:22:10.841Z,62.28
2023-12-18T14:24:40.318Z,61.08
2023-12-18T14:27:10.546Z,59.70
2023-12-18T14:29:38.983Z,62.08
2023-12-18T14:32:08.081Z,60.53
2023-12-18T14:34:38.638Z,57.90
2023-12-18T14:37:09.595Z,61.25
2023-12-18T14:39:38.001Z,66.38
2023-12-18T14:42:07.291Z,58.60
2023-12-18T14:44:36.228Z,68.13
2023-12-18T14:47:04.929Z,67.30
2023-12-18T14:49:33.987Z,61.67
2023-12-18T14:52:03.988Z,62.45
2023-12-18T14:54:33.198Z,64.03
2023-12-18T14:57:02.044Z,66.25
2023-12-18T14:59:32.220Z,63.95
2023-12-18T15:02:02.785Z,72.28
2023-12-18T15:04:31.411Z,70.93
2023-12-18T15:07:00.553Z,71.40
2023-12-18T15:09:30.684Z,78.72
2023-12-18T15:12:01.281Z,73.22
2023-12-18T15:14:29.794Z,71.95
2023-12-18T15:17:04.623Z,82.45
2023-12-18T15:19:34.614Z,76.10
2023-12-18T15:22:05.712Z,86.05
2023-12-18T15:24:39.794Z,82.88
2023-12-18T15:27:08.773Z,79.53
2023-12-18T15:29:38.232Z,74.40
2023-12-18T15:32:08.311Z,86.78
2023-12-18T15:34:36.948Z,78.53
2023-12-18T15:37:05.842Z,98.45
2023-12-18T15:39:35.669Z,91.57
2023-12-18T15:42:07.131Z,117.03
2023-12-18T15:44:39.159Z,121.75
2023-12-18T15:47:08.617Z,138.25
2023-12-18T15:49:37.190Z,93.30
2023-12-18T15:52:06.111Z,157.25
2023-12-18T15:54:36.683Z,160.80
2023-12-18T15:57:05.564Z,173.23
2023-12-18T15:59:33.669Z,254.95
2023-12-18T16:02:02.127Z,457.67
2023-12-18T16:04:30.585Z,416.83
2023-12-18T16:07:00.620Z,541.90
2023-12-18T16:09:28.146Z,443.15
2023-12-18T16:11:57.680Z,351.08
2023-12-18T16:14:26.667Z,275.17
2023-12-18T16:16:56.489Z,177.70
2023-12-18T16:19:25.601Z,318.23
2023-12-18T16:21:53.878Z,575.80
2023-12-18T16:24:22.911Z,600.53
2023-12-18T16:26:52.551Z,312.75
2023-12-18T16:29:24.207Z,358.98
2023-12-18T16:31:53.868Z,245.32
2023-12-18T16:34:23.250Z,496.05
2023-12-18T16:36:52.269Z,436.50
2023-12-18T16:39:21.552Z,634.22
2023-12-18T16:41:50.604Z,245.13
2023-12-18T16:44:19.234Z,267.35
2023-12-18T16:46:50.972Z,235.80
2023-12-18T16:49:19.968Z,358.67
2023-12-18T16:51:49.129Z,240.77
2023-12-18T16:54:19.142Z,373.95
2023-12-18T16:56:48.044Z,184.90
2023-12-18T16:59:18.038Z,231.85
2023-12-18T17:01:49.183Z,375.27
2023-12-18T17:04:17.781Z,350.55
2023-12-18T17:06:46.673Z,257.58
2023-12-18T17:09:15.063Z,231.82
2023-12-18T17:11:44.644Z,277.83
2023-12-18T17:14:19.801Z,254.27
2023-12-18T17:16:50.247Z,163.43
2023-12-18T17:19:18.887Z,150.65
2023-12-18T17:21:48.985Z,222.38
2023-12-18T17:24:19.141Z,179.85
2023-12-18T17:26:48.268Z,148.05
2023-12-18T17:29:17.902Z,147.70
2023-12-18T17:31:47.242Z,127.10
2023-12-18T17:34:17.673Z,270.63
2023-12-18T17:36:47.802Z,201.07
2023-12-18T17:39:16.216Z,153.65
2023-12-18T17:41:45.035Z,171.50
2023-12-18T17:44:14.996Z,212.18
2023-12-18T17:46:45.100Z,167.73
2023-12-18T17:49:13.965Z,133.75
2023-12-18T17:51:45.843Z,113.35
2023-12-18T17:54:15.571Z,131.98
2023-12-18T17:56:46.704Z,103.68
2023-12-18T17:59:15.039Z,115.43
2023-12-18T18:02:01.832Z,111.53
2023-12-18T18:04:32.544Z,129.70
2023-12-18T18:07:03.795Z,153.75
2023-12-18T18:09:33.263Z,67.25
2023-12-18T18:12:01.930Z,135.48
2023-12-18T18:14:30.668Z,203.25
2023-12-18T18:17:00.197Z,209.32
2023-12-18T18:19:30.617Z,322.83
2023-12-18T18:22:02.326Z,256.73
2023-12-18T18:24:31.164Z,252.82
2023-12-18T18:27:08.768Z,217.23
2023-12-18T18:29:39.726Z,141.48
2023-12-18T18:32:10.874Z,129.13
2023-12-18T18:34:40.841Z,290.33
2023-12-18T18:37:11.520Z,292.95
2023-12-18T18:39:42.342Z,127.13
2023-12-18T18:42:11.555Z,485.25
2023-12-18T18:44:42.365Z,157.93
2023-12-18T18:47:11.667Z,128.52
2023-12-18T18:49:41.675Z,167.68
2023-12-18T18:52:14.232Z,183.85
2023-12-18T18:54:44.125Z,118.93
2023-12-18T18:57:14.109Z,113.80
2023-12-18T18:59:43.261Z,159.82
2023-12-18T19:02:13.485Z,207.90
2023-12-18T19:04:43.236Z,118.78
2023-12-18T19:07:15.387Z,73.38
2023-12-18T19:09:44.896Z,112.28
2023-12-18T19:12:14.975Z,136.82
2023-12-18T19:14:47.798Z,88.75
2023-12-18T19:17:16.591Z,130.18
2023-12-18T19:19:45.976Z,164.13
2023-12-18T19:22:18.685Z,231.38
2023-12-18T19:24:47.646Z,215.98
2023-12-18T19:27:16.657Z,267.98
2023-12-18T19:29:45.570Z,125.72
2023-12-18T19:32:14.626Z,90.88
2023-12-18T19:34:43.445Z,113.68
2023-12-18T19:37:12.624Z,162.52
2023-12-18T19:39:43.529Z,87.30
2023-12-18T19:42:11.928Z,168.70
2023-12-18T19:44:40.669Z,100.55
2023-12-18T19:47:09.229Z,151.80
2023-12-18T19:49:40.920Z,96.32
2023-12-18T19:52:10.390Z,166.25
2023-12-18T19:54:40.125Z,146.10
2023-12-18T19:57:10.555Z,128.38
2023-12-18T19:59:40.418Z,160.63
2023-12-18T20:02:10.617Z,280.25
2023-12-18T20:04:40.017Z,235.73
2023-12-18T20:07:15.250Z,180.68
2023-12-18T20:09:45.421Z,266.73
2023-12-18T20:12:19.783Z,229.15
2023-12-18T20:14:49.207Z,271.02
2023-12-18T20:17:18.465Z,250.98
2023-12-18T20:19:48.125Z,105.38
2023-12-18T20:22:16.884Z,137.88
2023-12-18T20:24:47.513Z,187.40
2023-12-18T20:27:18.131Z,205.02
2023-12-18T20:29:49.236Z,138.88
2023-12-18T20:32:17.661Z,254.07
2023-12-18T20:34:47.072Z,215.90
2023-12-18T20:37:16.446Z,192.32
2023-12-18T20:39:45.235Z,182.93
2023-12-18T20:42:14.724Z,186.93
2023-12-18T20:44:44.897Z,248.70
2023-12-18T20:47:13.956Z,294.73
2023-12-18T20:49:43.180Z,203.55
2023-12-18T20:52:11.654Z,327.52
2023-12-18T20:54:41.134Z,195.93
2023-12-18T20:57:10.297Z,226.38
2023-12-18T20:59:42.395Z,198.57
2023-12-18T21:02:13.160Z,228.30
2023-12-18T21:04:41.908Z,381.00
2023-12-18T21:07:10.835Z,170.82
2023-12-18T21:09:39.461Z,191.88
2023-12-18T21:12:09.083Z,265.52
2023-12-18T21:14:37.933Z,204.95
2023-12-18T21:17:06.963Z,124.03
2023-12-18T21:19:39.966Z,145.30
2023-12-18T21:22:09.430Z,128.15
2023-12-18T21:24:38.652Z,132.93
2023-12-18T21:27:08.961Z,113.60
2023-12-18T21:29:37.797Z,97.25
2023-12-18T21:32:07.706Z,121.35
2023-12-18T21:34:38.251Z,79.95
2023-12-18T21:37:07.078Z,72.63
2023-12-18T21:39:36.899Z,61.70
2023-12-18T21:42:06.733Z,75.90
2023-12-18T21:44:35.530Z,52.80
2023-12-18T21:47:06.125Z,46.53
2023-12-18T21:49:38.774Z,50.33
2023-12-18T21:52:10.798Z,47.75
2023-12-18T21:54:40.504Z,62.03
2023-12-18T21:57:11.533Z,53.75
2023-12-18T21:59:40.190Z,55.40
2023-12-18T22:02:09.861Z,43.55
2023-12-18T22:04:39.144Z,57.80
2023-12-18T22:07:09.842Z,47.53
2023-12-18T22:09:39.559Z,43.55
2023-12-18T22:12:09.034Z,47.85
2023-12-18T22:14:37.469Z,53.40
2023-12-18T22:17:06.536Z,48.53
2023-12-18T22:19:35.281Z,45.05
2023-12-18T22:22:06.834Z,60.33
2023-12-18T22:24:38.480Z,65.43
2023-12-18T22:27:07.937Z,54.45
2023-12-18T22:29:36.901Z,31.67
2023-12-18T22:32:06.343Z,45.03
2023-12-18T22:34:35.694Z,64.82
2023-12-18T22:37:05.320Z,71.72
2023-12-18T22:39:34.540Z,55.13
2023-12-18T22:42:05.376Z,50.85
2023-12-18T22:44:33.884Z,47.42
2023-12-18T22:47:04.392Z,38.40
2023-12-18T22:49:33.203Z,42.63
2023-12-18T22:52:02.286Z,39.47
2023-12-18T22:54:31.078Z,46.53
2023-12-18T22:56:59.638Z,45.30
2023-12-18T22:59:29.667Z,43.95
2023-12-18T23:01:58.564Z,45.78
2023-12-18T23:04:28.559Z,46.28
2023-12-18T23:06:57.599Z,43.00
2023-12-18T23:09:27.112Z,47.25
2023-12-18T23:11:55.894Z,50.00
2023-12-18T23:14:24.187Z,39.55
2023-12-18T23:16:54.906Z,43.88
2023-12-18T23:19:23.264Z,43.45
2023-12-18T23:21:52.417Z,44.35
2023-12-18T23:24:20.970Z,37.70
2023-12-18T23:26:49.954Z,39.45
2023-12-18T23:29:18.691Z,40.83
2023-12-18T23:31:47.945Z,42.78
2023-12-18T23:34:18.227Z,36.33
2023-12-18T23:36:46.458Z,41.67
2023-12-18T23:39:17.344Z,45.28
2023-12-18T23:41:46.345Z,37.60
2023-12-18T23:44:16.278Z,48.05
2023-12-18T23:46:44.647Z,44.20
2023-12-18T23:49:13.597Z,40.85
2023-12-18T23:51:43.980Z,46.08
2023-12-18T23:54:12.814Z,42.17
2023-12-18T23:56:41.433Z,49.47
2023-12-18T23:59:10.130Z,38.95
